This is the latest recevied weather packets stored in our database for station/object AE5HO. If no packets are shown the sender has not sent any weather packets the latest 10 day(s).
| Time | Temp. | Humidity | Pressure | Rain* | Wind** | Luminosity | Snow |
|---|---|---|---|---|---|---|---|
| 1778078772 | 12.78° C | 83% | 1015.4 hPa | 0 mm | - | 29 W/m² | - |
| 1778078468 | 12.78° C | 83% | 1014.8 hPa | 0 mm | - | 32 W/m² | - |
| 1778078166 | 12.78° C | 83% | 1014.5 hPa | 0 mm | - | 31 W/m² | - |
| 1778077864 | 12.78° C | 83% | 1014.1 hPa | 0 mm | - | 45 W/m² | - |
| 1778077562 | 12.22° C | 83% | 1015.4 hPa | 0 mm | - | 15 W/m² | - |
| 1778077260 | 12.78° C | 83% | 1015.6 hPa | 0 mm | - | 15 W/m² | - |
| 1778076957 | 12.78° C | 82% | 1015.5 hPa | 0 mm | - | 21 W/m² | - |
| 1778076656 | 12.78° C | 82% | 1015.3 hPa | 0 mm | - | 22 W/m² | - |
| 1778076353 | 12.22° C | 82% | 1015.2 hPa | 0 mm | - | 35 W/m² | - |
| 1778076050 | 12.78° C | 82% | 1014.8 hPa | 0 mm | - | 34 W/m² | - |
| 1778075747 | 12.78° C | 82% | 1014.4 hPa | 0 mm | - | 42 W/m² | - |
| 1778075443 | 12.22° C | 83% | 1014.6 hPa | 0 mm | - | 35 W/m² | - |
| 1778075139 | 12.22° C | 83% | 1014.7 hPa | 0 mm | - | 21 W/m² | - |
| 1778074835 | 12.22° C | 83% | 1014.3 hPa | 0 mm | - | 21 W/m² | - |
| 1778074533 | 12.22° C | 83% | 1014.1 hPa | 0 mm | - | 28 W/m² | - |
| 1778074230 | 12.22° C | 83% | 1014.4 hPa | 0 mm | - | 26 W/m² | - |
| 1778073927 | 12.22° C | 83% | 1014.2 hPa | 0 mm | - | 18 W/m² | - |
| 1778073624 | 12.22° C | 83% | 1014.1 hPa | 0 mm | - | 22 W/m² | - |
| 1778073321 | 12.22° C | 82% | 1013.8 hPa | 0 mm | - | 24 W/m² | - |
| 1778073017 | 12.22° C | 83% | 1014 hPa | 0 mm | - | 13 W/m² | - |
| 1778072714 | 12.22° C | 83% | 1013.9 hPa | 0 mm | - | 11 W/m² | - |
| 1778072412 | 12.22° C | 83% | 1013.7 hPa | 0 mm | - | 9 W/m² | - |
| 1778072110 | 12.22° C | 83% | 1013.5 hPa | 0 mm | - | 7 W/m² | - |
| 1778071808 | 12.22° C | 83% | 1013.7 hPa | 0 mm | - | 6 W/m² | - |
| 1778071505 | 12.22° C | 83% | 1013.6 hPa | 0 mm | - | 5 W/m² | - |
* Rain latest hour (hover to see other rain measurements)
** Current wind speed in m/s (hover to see current wind gust speed)